Time;durP1;ratioP1;P1;durP2;ratioP2;P2;SDS_P1;SDS_P2;PMS_P1;PMS_P2;Temp;Humidity;BMP_temperature;BMP_pressure;BME280_temperature;BME280_humidity;BME280_pressure;Samples;Min_cycle;Max_cycle;Signal;HPM_P1;HPM_P2
2021/07/19 04:01:54;;;;;;;6.33;5.27;;;19.50;99.90;;;;;;5301883;23;20490;-61
2021/07/19 04:04:31;;;;;;;5.30;4.90;;;19.50;99.90;;;;;;4974873;28;20457;-63
2021/07/19 04:06:59;;;;;;;6.27;5.30;;;19.60;99.90;;;;;;4974538;28;20462;-63
2021/07/19 04:09:26;;;;;;;5.73;4.60;;;19.60;99.90;;;;;;4974949;28;20455;-61
2021/07/19 04:11:55;;;;;;;7.17;4.80;;;19.60;99.90;;;;;;4974746;28;20482;-61
2021/07/19 04:14:23;;;;;;;5.20;4.80;;;19.60;99.90;;;;;;4974942;28;20458;-61
2021/07/19 04:16:50;;;;;;;4.97;4.67;;;19.60;99.90;;;;;;4975018;28;20537;-61
2021/07/19 04:19:18;;;;;;;5.00;4.57;;;19.60;99.90;;;;;;4974948;28;20524;-61
2021/07/19 04:21:45;;;;;;;4.67;4.27;;;19.60;99.90;;;;;;4974736;28;20486;-60
2021/07/19 04:24:13;;;;;;;5.87;5.10;;;19.60;99.90;;;;;;4974855;28;20458;-61
2021/07/19 04:26:40;;;;;;;4.53;4.23;;;19.60;99.90;;;;;;4975000;28;20475;-61
2021/07/19 04:29:07;;;;;;;5.33;4.90;;;19.60;99.90;;;;;;4974628;28;20462;-61
2021/07/19 04:31:34;;;;;;;5.30;4.80;;;19.60;99.90;;;;;;4974685;28;20482;-61
2021/07/19 04:34:00;;;;;;;9.27;5.13;;;19.60;99.90;;;;;;4974606;28;20458;-61
2021/07/19 04:36:28;;;;;;;5.23;4.93;;;19.70;99.90;;;;;;4974575;28;20459;-61
2021/07/19 04:38:56;;;;;;;4.73;4.43;;;19.70;99.90;;;;;;4975149;28;20534;-61
2021/07/19 04:41:22;;;;;;;5.10;4.70;;;19.70;99.90;;;;;;4974460;28;20501;-61
2021/07/19 04:43:49;;;;;;;4.67;4.23;;;19.70;99.90;;;;;;4975107;28;20977;-61
2021/07/19 04:46:16;;;;;;;5.40;4.87;;;19.70;99.90;;;;;;4974720;28;20797;-61
2021/07/19 04:48:43;;;;;;;5.30;4.70;;;19.80;99.90;;;;;;4974574;28;20450;-61
2021/07/19 04:51:10;;;;;;;5.90;4.97;;;19.80;99.90;;;;;;4974399;28;20482;-61
2021/07/19 04:53:40;;;;;;;6.97;4.47;;;19.80;99.90;;;;;;4974483;28;20461;-61
2021/07/19 04:56:07;;;;;;;5.33;4.73;;;19.90;99.90;;;;;;4974461;28;20469;-61
2021/07/19 04:58:35;;;;;;;5.37;4.33;;;19.90;99.90;;;;;;4974495;28;20462;-61
2021/07/19 05:01:06;;;;;;;5.93;4.77;;;19.90;99.90;;;;;;4974482;28;20486;-61
2021/07/19 05:03:36;;;;;;;6.40;4.87;;;20.00;99.90;;;;;;4977700;28;20936;-61
2021/07/19 05:06:04;;;;;;;5.50;5.10;;;20.00;99.90;;;;;;4977954;28;20446;-61
2021/07/19 05:08:32;;;;;;;5.40;4.97;;;20.10;99.90;;;;;;4977764;28;20486;-61
2021/07/19 05:11:01;;;;;;;6.07;5.60;;;20.10;99.90;;;;;;4977842;28;20533;-61
2021/07/19 05:13:28;;;;;;;5.57;5.07;;;20.30;99.90;;;;;;4977766;28;20460;-61
2021/07/19 05:15:56;;;;;;;5.80;4.70;;;20.40;99.90;;;;;;4977414;28;20993;-61
2021/07/19 05:18:24;;;;;;;5.20;4.53;;;20.40;99.90;;;;;;4977687;28;20529;-61
2021/07/19 05:20:51;;;;;;;5.57;5.10;;;20.50;99.90;;;;;;4977510;28;20479;-61
2021/07/19 05:23:22;;;;;;;5.70;5.20;;;20.60;99.90;;;;;;4977662;28;20458;-61
2021/07/19 05:25:49;;;;;;;5.00;4.60;;;20.60;99.90;;;;;;4977261;28;20953;-61
2021/07/19 05:28:17;;;;;;;5.53;5.00;;;20.70;99.90;;;;;;4977487;28;20483;-60
2021/07/19 05:30:46;;;;;;;4.73;4.33;;;20.70;99.90;;;;;;4977414;28;20479;-61
2021/07/19 05:33:14;;;;;;;5.30;4.20;;;20.70;99.90;;;;;;4977240;28;20459;-60
2021/07/19 05:35:41;;;;;;;5.40;4.90;;;20.80;99.90;;;;;;4977424;28;20462;-61
2021/07/19 05:38:08;;;;;;;4.93;4.40;;;20.80;99.90;;;;;;4977431;28;20455;-60
2021/07/19 05:40:35;;;;;;;7.30;5.13;;;20.90;99.90;;;;;;4977152;28;20478;-60
2021/07/19 05:43:03;;;;;;;5.73;5.23;;;21.00;99.90;;;;;;4977188;28;20458;-60
2021/07/19 05:45:32;;;;;;;5.20;4.77;;;21.00;99.90;;;;;;4977134;28;20458;-60
2021/07/19 05:47:59;;;;;;;7.43;4.73;;;21.10;99.90;;;;;;4977214;28;20481;-60
2021/07/19 05:50:27;;;;;;;4.57;4.10;;;21.00;99.90;;;;;;4977116;28;20451;-60
2021/07/19 05:52:54;;;;;;;5.53;5.10;;;21.10;99.90;;;;;;4977124;28;20454;-61
2021/07/19 05:55:21;;;;;;;4.83;4.27;;;21.30;99.90;;;;;;4977094;28;20455;-61
2021/07/19 05:57:48;;;;;;;5.20;4.77;;;21.40;99.90;;;;;;4977054;28;20550;-61
2021/07/19 06:00:16;;;;;;;6.13;5.17;;;21.60;99.90;;;;;;4976922;28;20458;-61
2021/07/19 06:02:44;;;;;;;5.30;4.90;;;21.70;99.90;;;;;;4977092;28;20435;-61
2021/07/19 06:05:12;;;;;;;6.10;5.60;;;21.80;99.90;;;;;;4976941;28;20469;-61
2021/07/19 06:07:39;;;;;;;5.17;4.67;;;21.90;99.90;;;;;;4976727;28;21039;-61
2021/07/19 06:10:07;;;;;;;5.23;4.83;;;22.00;99.90;;;;;;4976691;28;20455;-61
2021/07/19 06:12:34;;;;;;;6.73;5.13;;;22.20;99.90;;;;;;4975544;28;21051;-60
2021/07/19 06:15:01;;;;;;;5.70;5.20;;;22.10;99.90;;;;;;4976322;28;20455;-61
2021/07/19 06:17:28;;;;;;;5.63;4.97;;;22.20;99.90;;;;;;4976652;28;20451;-61
2021/07/19 06:19:56;;;;;;;5.53;5.03;;;22.20;99.90;;;;;;4976386;28;20466;-61
2021/07/19 06:22:23;;;;;;;6.83;5.20;;;22.30;99.90;;;;;;4976788;28;20482;-61
2021/07/19 06:24:51;;;;;;;6.70;4.90;;;22.40;99.90;;;;;;4976632;28;20455;-61
2021/07/19 06:27:18;;;;;;;5.43;4.90;;;22.50;99.90;;;;;;4976170;28;21056;-61
2021/07/19 06:29:45;;;;;;;5.10;4.70;;;22.60;99.90;;;;;;4976179;28;20458;-61
2021/07/19 06:32:12;;;;;;;5.63;5.23;;;22.60;99.90;;;;;;4976318;28;20842;-61
2021/07/19 06:34:39;;;;;;;5.63;4.70;;;22.80;99.90;;;;;;4975945;28;20794;-61
2021/07/19 06:37:07;;;;;;;5.10;4.70;;;22.90;99.90;;;;;;4976339;28;20833;-61
2021/07/19 06:39:33;;;;;;;5.47;4.90;;;23.20;99.90;;;;;;4976384;28;20492;-62
2021/07/19 06:42:00;;;;;;;5.37;4.90;;;23.40;99.90;;;;;;4976486;28;20483;-60
2021/07/19 06:44:27;;;;;;;6.13;5.20;;;23.60;99.90;;;;;;4976201;28;20949;-62
2021/07/19 06:46:56;;;;;;;5.43;5.03;;;23.80;99.90;;;;;;4976032;28;20485;-62
2021/07/19 06:49:24;;;;;;;4.87;4.47;;;24.00;99.90;;;;;;4976614;28;20855;-61
2021/07/19 06:51:50;;;;;;;5.80;4.90;;;24.20;99.90;;;;;;4978374;28;20517;-61
2021/07/19 06:54:19;;;;;;;5.30;4.80;;;24.50;99.90;;;;;;4977643;28;20462;-62
2021/07/19 06:56:45;;;;;;;4.60;4.30;;;24.90;99.90;;;;;;4976832;28;20509;-62
2021/07/19 06:59:12;;;;;;;4.43;4.03;;;25.20;99.90;;;;;;4975573;28;20973;-62
2021/07/19 07:01:40;;;;;;;4.90;4.50;;;25.50;99.90;;;;;;4975795;28;20902;-62
2021/07/19 07:04:07;;;;;;;4.83;4.43;;;26.00;99.90;;;;;;4975795;28;20542;-61
2021/07/19 07:06:34;;;;;;;6.53;4.53;;;26.80;99.90;;;;;;4975681;28;20459;-61
2021/07/19 07:09:01;;;;;;;4.90;4.50;;;27.30;99.90;;;;;;4975611;28;20482;-60
2021/07/19 07:11:29;;;;;;;5.30;4.00;;;27.60;99.90;;;;;;4975656;28;20501;-60
2021/07/19 07:13:56;;;;;;;5.67;3.97;;;27.70;99.90;;;;;;4975737;28;20489;-62
2021/07/19 07:16:23;;;;;;;4.90;4.50;;;28.10;99.90;;;;;;4975504;28;20455;-60
2021/07/19 07:18:50;;;;;;;5.63;3.60;;;28.40;99.90;;;;;;4975644;28;20454;-60
2021/07/19 07:21:16;;;;;;;4.83;4.00;;;28.40;99.90;;;;;;4975358;28;20898;-60
2021/07/19 07:23:43;;;;;;;6.20;4.77;;;28.70;99.90;;;;;;4974942;28;20968;-60
2021/07/19 07:26:10;;;;;;;5.87;3.90;;;28.50;99.90;;;;;;4975374;28;20459;-60
2021/07/19 07:28:39;;;;;;;4.47;4.00;;;28.80;99.90;;;;;;4975253;28;20478;-60
2021/07/19 07:31:06;;;;;;;5.97;3.60;;;29.20;99.90;;;;;;4975279;28;20479;-60
2021/07/19 07:33:33;;;;;;;4.73;3.60;;;29.10;99.90;;;;;;4975243;28;20462;-60
2021/07/19 07:35:59;;;;;;;4.90;4.17;;;29.50;99.90;;;;;;4975913;28;20457;-61
2021/07/19 07:38:26;;;;;;;4.37;3.97;;;29.40;99.90;;;;;;4975167;28;20451;-61
2021/07/19 07:40:53;;;;;;;3.90;3.60;;;29.10;99.90;;;;;;4975090;28;20485;-62
2021/07/19 07:43:20;;;;;;;3.40;3.20;;;29.30;99.90;;;;;;4974813;28;20926;-61
2021/07/19 07:45:50;;;;;;;3.73;3.43;;;29.80;99.90;;;;;;4974758;28;20820;-60
2021/07/19 07:48:17;;;;;;;4.20;4.00;;;30.10;99.90;;;;;;4975003;28;20475;-62
2021/07/19 07:50:44;;;;;;;7.70;4.07;;;30.50;99.90;;;;;;4975143;28;20895;-60
2021/07/19 07:53:11;;;;;;;3.90;3.60;;;31.00;99.90;;;;;;4974777;28;20457;-60
2021/07/19 07:55:38;;;;;;;4.27;3.97;;;31.30;99.20;;;;;;4975029;28;20450;-60
2021/07/19 07:58:07;;;;;;;5.13;4.03;;;31.60;98.70;;;;;;4975131;28;20458;-60
2021/07/19 08:00:34;;;;;;;6.60;4.30;;;32.00;98.90;;;;;;4974509;28;20486;-60
2021/07/19 08:03:02;;;;;;;3.87;3.60;;;31.90;96.20;;;;;;4974714;28;20940;-60
2021/07/19 08:05:28;;;;;;;5.60;4.10;;;31.50;96.10;;;;;;4974876;28;20505;-62
2021/07/19 08:07:55;;;;;;;4.33;3.73;;;31.50;98.00;;;;;;4974810;28;20474;-61
2021/07/19 08:10:22;;;;;;;3.80;3.60;;;31.90;96.60;;;;;;4974759;28;20459;-62
2021/07/19 08:12:48;;;;;;;4.23;3.73;;;31.50;96.30;;;;;;4974931;28;20509;-62
2021/07/19 08:15:17;;;;;;;4.17;3.87;;;31.00;97.10;;;;;;4974442;28;20963;-60
2021/07/19 08:17:44;;;;;;;4.87;4.43;;;31.20;97.50;;;;;;4974846;28;20458;-60
2021/07/19 08:20:14;;;;;;;8.83;4.17;;;31.60;95.20;;;;;;4974673;28;20462;-60
2021/07/19 08:22:41;;;;;;;6.47;4.00;;;31.60;94.90;;;;;;4974836;28;20458;-61
2021/07/19 08:25:08;;;;;;;6.70;4.37;;;31.90;94.10;;;;;;4974797;28;20469;-61
2021/07/19 08:27:35;;;;;;;4.67;4.37;;;32.00;94.10;;;;;;4974688;28;20562;-62
2021/07/19 08:30:02;;;;;;;4.10;3.77;;;32.30;93.40;;;;;;4974773;28;20467;-61
2021/07/19 08:32:29;;;;;;;3.83;3.40;;;32.50;93.70;;;;;;4974728;28;20475;-62
2021/07/19 08:34:55;;;;;;;4.57;4.17;;;32.60;93.70;;;;;;4974498;28;21012;-62
2021/07/19 08:37:25;;;;;;;4.10;3.80;;;32.90;92.80;;;;;;4977042;28;20859;-61
2021/07/19 08:39:51;;;;;;;4.67;4.17;;;33.00;92.70;;;;;;4978854;28;20868;-61
2021/07/19 08:42:18;;;;;;;3.53;3.33;;;33.50;92.50;;;;;;4978489;28;20544;-61
2021/07/19 08:44:45;;;;;;;4.27;3.87;;;33.50;91.40;;;;;;4978091;28;20458;-62
2021/07/19 08:47:13;;;;;;;4.30;4.00;;;33.70;91.50;;;;;;4978303;28;20458;-62
2021/07/19 08:49:41;;;;;;;3.90;3.60;;;33.10;90.40;;;;;;4978278;28;20478;-61
2021/07/19 08:52:08;;;;;;;3.80;3.60;;;33.10;91.70;;;;;;4978193;28;20478;-61
2021/07/19 08:54:37;;;;;;;4.60;4.30;;;33.10;91.10;;;;;;4978195;28;20450;-61
2021/07/19 08:57:05;;;;;;;4.17;3.87;;;32.90;87.80;;;;;;4978225;28;20459;-61
2021/07/19 08:59:33;;;;;;;3.97;3.67;;;33.20;92.10;;;;;;4978111;28;20450;-61
2021/07/19 09:02:01;;;;;;;5.10;4.10;;;33.80;90.90;;;;;;4977645;28;20541;-61
2021/07/19 09:04:28;;;;;;;4.37;3.80;;;34.10;86.20;;;;;;4978061;28;20550;-62
2021/07/19 09:06:55;;;;;;;4.50;3.90;;;33.20;85.70;;;;;;4977982;28;20461;-62
2021/07/19 09:09:29;;;;;;;4.73;4.13;;;33.20;90.00;;;;;;4977899;28;20482;-62
2021/07/19 09:11:58;;;;;;;4.87;4.37;;;33.10;88.80;;;;;;4977586;28;20478;-62
2021/07/19 09:14:25;;;;;;;4.77;4.23;;;33.00;88.70;;;;;;4977787;28;20458;-62
2021/07/19 09:16:53;;;;;;;3.97;3.77;;;33.10;90.30;;;;;;4977757;28;20458;-62
2021/07/19 09:19:22;;;;;;;4.63;4.33;;;33.70;89.10;;;;;;4977726;28;20461;-59
2021/07/19 09:21:51;;;;;;;4.70;4.30;;;34.10;89.30;;;;;;4977474;28;20473;-61
2021/07/19 09:24:19;;;;;;;4.10;3.83;;;34.60;90.70;;;;;;4977578;28;20461;-61
2021/07/19 09:26:47;;;;;;;4.90;4.50;;;35.10;90.20;;;;;;4977557;28;20481;-61
2021/07/19 09:29:19;;;;;;;4.50;4.10;;;35.50;81.90;;;;;;4977942;28;20481;-62
2021/07/19 09:31:49;;;;;;;4.67;4.27;;;35.20;81.50;;;;;;4977603;28;20478;-62
2021/07/19 09:34:19;;;;;;;3.90;3.70;;;35.40;81.60;;;;;;4977606;28;20449;-62
2021/07/19 09:36:57;;;;;;;4.53;4.13;;;35.70;81.40;;;;;;4977383;28;20465;-60
2021/07/19 09:39:24;;;;;;;4.33;3.93;;;36.00;77.90;;;;;;4977043;28;20953;-59
2021/07/19 09:41:51;;;;;;;4.30;4.07;;;35.90;76.30;;;;;;4977201;28;20493;-60
2021/07/19 09:44:22;;;;;;;4.90;4.40;;;35.50;78.90;;;;;;4977134;28;20462;-60
2021/07/19 09:46:49;;;;;;;5.00;4.17;;;35.30;76.20;;;;;;4977198;28;20438;-61
2021/07/19 09:49:17;;;;;;;5.83;3.73;;;35.10;81.20;;;;;;4977138;28;20488;-61
2021/07/19 09:51:43;;;;;;;4.87;4.20;;;35.30;78.50;;;;;;4977737;28;20484;-61
2021/07/19 09:54:11;;;;;;;5.63;3.63;;;34.40;77.00;;;;;;4977096;28;20464;-61
2021/07/19 09:56:39;;;;;;;5.13;3.70;;;34.90;76.50;;;;;;4977140;28;20462;-61
2021/07/19 09:59:07;;;;;;;7.00;3.77;;;34.20;77.60;;;;;;4977028;28;20454;-61
2021/07/19 10:01:37;;;;;;;5.30;4.00;;;35.10;83.60;;;;;;4976977;28;20501;-59
2021/07/19 10:04:05;;;;;;;6.17;4.37;;;35.50;77.40;;;;;;4976955;28;20458;-60
2021/07/19 10:06:32;;;;;;;3.80;3.60;;;35.50;75.00;;;;;;4976911;28;20462;-60
2021/07/19 10:09:00;;;;;;;4.80;4.30;;;35.60;74.10;;;;;;4976806;28;20482;-60
2021/07/19 10:11:31;;;;;;;3.90;3.50;;;34.70;74.90;;;;;;4977345;28;20481;-60
2021/07/19 10:13:59;;;;;;;3.33;3.17;;;34.20;79.90;;;;;;4977150;28;20541;-61
2021/07/19 10:16:27;;;;;;;4.00;3.67;;;35.00;78.90;;;;;;4976821;28;20481;-60
2021/07/19 10:18:56;;;;;;;3.20;2.80;;;35.30;75.90;;;;;;4976673;28;21000;-60
2021/07/19 10:21:23;;;;;;;4.30;3.13;;;34.90;74.30;;;;;;4977404;28;20860;-60
2021/07/19 10:23:50;;;;;;;3.30;3.03;;;35.60;73.30;;;;;;4976560;28;20459;-60
2021/07/19 10:26:18;;;;;;;4.17;3.40;;;35.50;69.10;;;;;;4976580;28;20461;-60
2021/07/19 10:28:44;;;;;;;6.43;3.57;;;34.70;70.10;;;;;;4976879;28;20470;-61
2021/07/19 10:31:12;;;;;;;3.83;3.50;;;34.10;72.40;;;;;;4976388;28;20836;-60
2021/07/19 10:33:39;;;;;;;4.90;3.93;;;33.80;76.20;;;;;;4976404;28;20549;-60
2021/07/19 10:36:11;;;;;;;4.43;4.03;;;33.80;75.00;;;;;;4976252;28;20454;-60
2021/07/19 10:38:41;;;;;;;3.63;3.43;;;33.80;75.70;;;;;;4976401;28;20529;-62
2021/07/19 10:41:08;;;;;;;4.00;3.60;;;33.30;76.40;;;;;;4976261;28;20573;-60
2021/07/19 10:43:35;;;;;;;3.80;3.60;;;32.90;78.80;;;;;;4976164;28;20462;-60
2021/07/19 10:46:08;;;;;;;5.07;3.53;;;32.90;80.10;;;;;;4976072;28;20484;-61
2021/07/19 10:48:35;;;;;;;4.90;4.30;;;33.00;79.80;;;;;;4976033;28;20467;-60
2021/07/19 10:51:17;;;;;;;7.43;3.80;;;33.10;76.50;;;;;;4975650;28;20819;-62
2021/07/19 10:53:43;;;;;;;4.73;3.53;;;33.60;76.50;;;;;;4976705;28;20434;-61
2021/07/19 10:56:14;;;;;;;3.37;3.13;;;33.70;76.60;;;;;;4975927;28;20454;-61
2021/07/19 10:58:43;;;;;;;5.70;5.20;;;34.60;77.00;;;;;;4975538;28;20450;-61
2021/07/19 11:01:20;;;;;;;3.70;3.20;;;35.30;77.00;;;;;;4975495;28;20536;-61
2021/07/19 11:03:47;;;;;;;3.40;3.10;;;35.70;70.90;;;;;;4975763;28;20458;-62
2021/07/19 11:06:14;;;;;;;4.20;3.20;;;35.80;70.30;;;;;;4975745;28;20821;-62
2021/07/19 11:08:49;;;;;;;4.00;3.70;;;36.00;71.50;;;;;;4975555;28;20482;-61
2021/07/19 11:11:27;;;;;;;3.00;2.70;;;36.60;70.60;;;;;;4975616;28;20537;-62
2021/07/19 11:13:58;;;;;;;3.90;2.90;;;36.70;65.80;;;;;;4975431;28;20438;-61
2021/07/19 11:16:25;;;;;;;3.37;2.73;;;37.10;64.20;;;;;;4975653;28;20477;-61
2021/07/19 11:18:57;;;;;;;3.23;2.93;;;37.30;64.40;;;;;;4975416;28;20493;-61
2021/07/19 11:21:26;;;;;;;4.07;3.40;;;37.30;66.10;;;;;;4975628;28;20501;-61
2021/07/19 11:23:54;;;;;;;3.73;3.27;;;37.20;63.70;;;;;;4976095;28;20485;-61
2021/07/19 11:26:23;;;;;;;3.87;3.53;;;36.60;69.40;;;;;;4975399;28;20454;-61
2021/07/19 11:28:50;;;;;;;2.63;2.43;;;36.50;65.70;;;;;;4975123;28;20862;-61
2021/07/19 11:31:25;;;;;;;8.73;2.97;;;36.40;67.70;;;;;;4975389;28;20478;-61
2021/07/19 11:33:59;;;;;;;5.63;2.70;;;36.20;63.60;;;;;;4975449;28;20482;-61
2021/07/19 11:36:29;;;;;;;2.43;2.33;;;36.20;66.40;;;;;;4975430;28;20521;-61
2021/07/19 11:38:59;;;;;;;2.40;2.30;;;35.80;65.00;;;;;;4975775;28;20526;-61
2021/07/19 11:41:28;;;;;;;2.87;2.57;;;36.00;65.40;;;;;;4976354;28;20478;-61
2021/07/19 11:43:57;;;;;;;3.07;2.87;;;35.70;65.60;;;;;;4975082;28;20457;-61
2021/07/19 11:46:30;;;;;;;2.67;2.47;;;35.20;64.60;;;;;;4974960;28;20544;-61
2021/07/19 11:48:59;;;;;;;2.30;2.20;;;34.80;63.80;;;;;;4975249;28;20469;-61
2021/07/19 11:51:27;;;;;;;4.03;2.90;;;34.70;66.50;;;;;;4975005;28;20478;-61
2021/07/19 11:53:56;;;;;;;3.10;2.90;;;34.50;69.80;;;;;;4975157;28;20856;-61
2021/07/19 11:56:23;;;;;;;3.67;2.50;;;34.20;62.30;;;;;;4974962;28;20942;-61
2021/07/19 11:58:58;;;;;;;2.67;2.47;;;33.80;66.90;;;;;;4975067;28;20816;-61
2021/07/19 12:01:30;;;;;;;3.20;2.90;;;32.90;67.30;;;;;;4974590;28;20481;-62
2021/07/19 12:03:58;;;;;;;3.13;2.53;;;32.80;74.60;;;;;;4974979;28;20454;-61
2021/07/19 12:06:26;;;;;;;3.23;2.53;;;33.00;70.60;;;;;;4974955;28;20454;-62
2021/07/19 12:08:54;;;;;;;2.77;2.67;;;33.30;73.80;;;;;;4974490;28;21044;-61
2021/07/19 12:11:23;;;;;;;3.57;2.97;;;33.30;70.10;;;;;;4975640;28;20477;-62
2021/07/19 12:13:50;;;;;;;4.50;2.80;;;33.30;72.60;;;;;;4978833;28;20536;-61
2021/07/19 12:16:17;;;;;;;2.87;2.67;;;33.20;68.40;;;;;;4978776;28;20455;-62
2021/07/19 12:18:48;;;;;;;3.33;3.03;;;33.10;69.50;;;;;;4978842;28;20461;-61
2021/07/19 12:21:17;;;;;;;3.70;2.70;;;33.00;69.80;;;;;;4978831;28;20899;-62
2021/07/19 12:23:46;;;;;;;3.13;2.93;;;33.30;72.70;;;;;;4978687;28;20830;-61
2021/07/19 12:26:16;;;;;;;3.17;2.90;;;33.30;70.30;;;;;;4979575;28;20960;-61
2021/07/19 12:28:55;;;;;;;4.27;3.00;;;33.30;73.50;;;;;;4983092;28;20438;-62
2021/07/19 12:31:28;;;;;;;3.33;3.10;;;33.20;74.00;;;;;;4990399;28;20478;-62
2021/07/19 12:33:55;;;;;;;4.97;3.20;;;33.00;71.20;;;;;;4990141;28;20446;-61
2021/07/19 12:36:22;;;;;;;3.70;3.30;;;32.50;70.70;;;;;;4983467;28;20451;-61
2021/07/19 12:38:49;;;;;;;3.50;3.30;;;32.10;73.80;;;;;;4978648;28;20462;-62
2021/07/19 12:41:16;;;;;;;3.90;3.53;;;31.80;72.40;;;;;;4978412;28;20879;-61
2021/07/19 12:43:44;;;;;;;4.10;3.70;;;31.80;74.70;;;;;;4978441;28;20454;-61
2021/07/19 12:46:12;;;;;;;3.60;3.13;;;32.00;74.50;;;;;;4978386;28;20458;-61
2021/07/19 12:48:44;;;;;;;3.47;3.17;;;31.90;74.90;;;;;;4978148;28;20462;-61
2021/07/19 12:51:12;;;;;;;4.00;3.60;;;31.70;74.40;;;;;;4978379;28;20481;-61
2021/07/19 12:53:39;;;;;;;3.60;3.40;;;31.50;76.20;;;;;;4978327;28;20458;-61
2021/07/19 12:56:10;;;;;;;5.30;4.80;;;31.40;78.70;;;;;;4978148;28;20454;-61
2021/07/19 12:58:38;;;;;;;3.90;3.60;;;31.30;79.40;;;;;;4978100;28;20454;-62
2021/07/19 13:01:13;;;;;;;3.60;3.40;;;31.60;80.20;;;;;;4978331;28;20586;-62
2021/07/19 13:03:40;;;;;;;3.33;3.03;;;31.90;77.20;;;;;;4978080;28;20462;-62
2021/07/19 13:06:07;;;;;;;3.53;3.23;;;31.90;76.90;;;;;;4977995;28;20458;-61
2021/07/19 13:08:35;;;;;;;3.73;3.40;;;31.80;77.50;;;;;;4978059;28;20481;-62
2021/07/19 13:11:13;;;;;;;3.43;3.23;;;31.70;76.70;;;;;;4978665;28;20807;-60
2021/07/19 13:13:40;;;;;;;3.33;3.13;;;31.50;78.70;;;;;;4978209;28;20537;-62
2021/07/19 13:16:08;;;;;;;3.97;3.67;;;30.90;77.10;;;;;;4992795;28;20485;-61
2021/07/19 13:18:36;;;;;;;4.00;3.00;;;30.80;80.10;;;;;;4983044;28;20459;-61
2021/07/19 13:21:06;;;;;;;2.97;2.77;;;31.20;80.90;;;;;;4978851;28;20475;-61
2021/07/19 13:23:35;;;;;;;3.10;2.90;;;31.30;76.20;;;;;;4978075;28;20478;-61
2021/07/19 13:26:11;;;;;;;3.00;2.80;;;31.10;75.30;;;;;;4978518;28;20509;-61
2021/07/19 13:28:39;;;;;;;4.43;2.80;;;31.10;82.30;;;;;;4978682;28;20442;-61
2021/07/19 13:31:07;;;;;;;4.20;2.90;;;31.30;78.20;;;;;;4979263;28;20901;-61
2021/07/19 13:33:42;;;;;;;4.33;2.63;;;31.50;80.90;;;;;;4980889;28;20946;-61
2021/07/19 13:36:09;;;;;;;2.90;2.80;;;31.60;81.80;;;;;;4981624;28;20941;-61
2021/07/19 13:38:37;;;;;;;3.20;3.00;;;31.70;80.10;;;;;;4984352;28;21005;-60
2021/07/19 13:41:04;;;;;;;5.20;3.10;;;31.90;78.30;;;;;;4982454;28;20470;-63
2021/07/19 13:43:37;;;;;;;3.07;2.77;;;31.70;75.20;;;;;;4980694;28;20463;-62
2021/07/19 13:46:05;;;;;;;5.87;3.40;;;32.10;80.70;;;;;;4979796;28;20447;-62
2021/07/19 13:48:33;;;;;;;2.93;2.73;;;32.50;79.00;;;;;;4983063;28;20454;-60
2021/07/19 13:51:01;;;;;;;4.10;3.80;;;32.60;75.70;;;;;;4980688;28;20486;-62
2021/07/19 13:53:28;;;;;;;3.17;2.90;;;32.50;78.10;;;;;;4978756;28;20482;-63
2021/07/19 13:55:56;;;;;;;6.00;3.10;;;32.70;75.60;;;;;;4981503;28;20846;-62
2021/07/19 13:58:23;;;;;;;3.40;3.10;;;32.60;79.10;;;;;;4983208;28;20450;-62
2021/07/19 14:00:50;;;;;;;3.47;2.80;;;32.60;79.40;;;;;;4977403;28;20478;-62
2021/07/19 14:03:16;;;;;;;3.60;2.70;;;32.90;75.60;;;;;;4977270;28;20446;-62
2021/07/19 14:05:44;;;;;;;3.80;3.40;;;33.10;78.70;;;;;;4977023;28;20458;-62
2021/07/19 14:08:12;;;;;;;7.03;3.23;;;33.20;78.60;;;;;;4976936;28;20890;-62
2021/07/19 14:10:39;;;;;;;3.40;3.20;;;33.40;77.90;;;;;;4976740;28;20486;-62
2021/07/19 14:13:07;;;;;;;3.90;3.13;;;33.30;75.70;;;;;;4976949;28;20454;-62
2021/07/19 14:15:34;;;;;;;3.67;3.37;;;32.90;73.70;;;;;;4976739;28;20455;-62
2021/07/19 14:18:03;;;;;;;4.47;3.30;;;32.70;74.50;;;;;;4976702;28;20445;-63
2021/07/19 14:20:30;;;;;;;3.63;3.40;;;32.50;76.10;;;;;;4976510;28;20465;-62
2021/07/19 14:22:58;;;;;;;3.73;3.40;;;31.60;76.20;;;;;;4976526;28;20459;-61
2021/07/19 14:25:27;;;;;;;3.70;3.40;;;31.30;79.00;;;;;;4977301;28;20462;-62
2021/07/19 14:27:54;;;;;;;5.33;4.93;;;30.60;80.80;;;;;;4976704;28;20459;-62
2021/07/19 14:30:22;;;;;;;5.50;4.10;;;30.10;83.40;;;;;;4976111;28;20993;-62
2021/07/19 14:32:51;;;;;;;3.63;3.33;;;29.70;84.50;;;;;;4976763;28;20478;-62
2021/07/19 14:35:19;;;;;;;5.17;3.70;;;29.50;86.20;;;;;;4975277;28;20947;-62
2021/07/19 14:37:46;;;;;;;3.60;3.40;;;29.40;85.10;;;;;;4976244;28;20531;-62
2021/07/19 14:40:16;;;;;;;4.20;4.00;;;29.40;88.50;;;;;;4976212;28;20461;-62
2021/07/19 14:42:47;;;;;;;4.43;3.83;;;29.60;90.00;;;;;;4976706;28;20455;-62
2021/07/19 14:45:14;;;;;;;4.00;3.50;;;30.00;90.00;;;;;;4977229;28;20467;-63
2021/07/19 14:47:41;;;;;;;3.70;3.40;;;30.10;87.60;;;;;;4976156;28;20461;-61
2021/07/19 14:50:09;;;;;;;3.97;3.67;;;30.20;86.90;;;;;;4976064;28;20812;-60
2021/07/19 14:52:37;;;;;;;10.03;3.53;;;30.00;86.70;;;;;;4975959;28;20486;-61
2021/07/19 14:55:04;;;;;;;6.73;3.90;;;29.70;85.80;;;;;;4975949;28;20799;-61
2021/07/19 14:57:32;;;;;;;4.73;3.97;;;29.40;86.40;;;;;;4975970;28;20458;-60
2021/07/19 15:00:00;;;;;;;4.40;3.60;;;29.20;87.60;;;;;;4975903;28;20478;-61
2021/07/19 15:02:27;;;;;;;7.47;4.00;;;29.10;87.20;;;;;;4975502;28;20483;-61
2021/07/19 15:04:53;;;;;;;4.10;3.80;;;29.10;88.80;;;;;;4975817;28;20509;-61
2021/07/19 15:07:20;;;;;;;4.20;3.23;;;29.10;87.90;;;;;;4975514;28;20934;-60
2021/07/19 15:09:47;;;;;;;4.20;3.50;;;29.10;87.00;;;;;;4975293;28;21004;-61
2021/07/19 15:12:13;;;;;;;3.90;3.50;;;29.10;89.20;;;;;;4975670;28;20934;-60
2021/07/19 15:14:40;;;;;;;4.47;3.90;;;29.10;88.90;;;;;;4975649;28;20459;-61
2021/07/19 15:17:08;;;;;;;5.07;4.53;;;28.90;88.20;;;;;;4975638;28;20505;-60
2021/07/19 15:19:35;;;;;;;5.47;3.37;;;28.90;89.90;;;;;;4975357;28;20459;-61
2021/07/19 15:22:02;;;;;;;6.93;3.70;;;29.00;89.10;;;;;;4975630;28;20985;-62
2021/07/19 15:24:29;;;;;;;3.33;3.03;;;28.90;90.10;;;;;;4975999;28;20467;-62
2021/07/19 15:26:55;;;;;;;4.23;3.60;;;28.70;90.70;;;;;;4976361;28;20459;-61
2021/07/19 15:29:22;;;;;;;5.40;3.63;;;28.50;91.70;;;;;;4976376;28;20459;-62
2021/07/19 15:31:49;;;;;;;6.57;4.03;;;28.50;91.60;;;;;;4975205;28;20511;-60
2021/07/19 15:34:17;;;;;;;4.00;3.70;;;28.50;91.80;;;;;;4975474;28;20455;-62
2021/07/19 15:36:43;;;;;;;5.00;4.40;;;28.50;91.90;;;;;;4975385;28;20462;-61
2021/07/19 15:39:10;;;;;;;9.57;4.33;;;28.50;92.60;;;;;;4975209;28;20516;-62
2021/07/19 15:41:37;;;;;;;6.27;4.77;;;28.60;92.60;;;;;;4975176;28;20475;-63
2021/07/19 15:44:04;;;;;;;6.30;5.90;;;28.90;92.40;;;;;;4975161;28;20823;-60
2021/07/19 15:46:31;;;;;;;4.13;3.70;;;28.90;92.30;;;;;;4974733;28;21004;-60
2021/07/19 15:48:58;;;;;;;5.00;3.80;;;28.70;91.60;;;;;;4975016;28;20458;-61
2021/07/19 15:51:27;;;;;;;4.57;4.03;;;28.70;91.80;;;;;;4975032;28;20486;-61
2021/07/19 15:53:53;;;;;;;9.30;4.43;;;28.60;92.10;;;;;;4975195;28;20458;-60
2021/07/19 15:56:20;;;;;;;4.37;3.83;;;28.40;92.60;;;;;;4975269;28;20455;-60
2021/07/19 15:58:46;;;;;;;5.40;3.73;;;28.10;92.10;;;;;;4975072;28;20486;-61
2021/07/19 16:01:13;;;;;;;4.07;3.57;;;28.10;92.20;;;;;;4974635;28;20490;-61
2021/07/19 16:03:40;;;;;;;5.60;3.77;;;28.10;93.20;;;;;;4974933;28;20526;-62
2021/07/19 16:06:07;;;;;;;6.60;4.07;;;28.20;93.10;;;;;;4974975;28;20459;-63
2021/07/19 16:08:35;;;;;;;5.17;4.70;;;28.20;93.50;;;;;;4974625;28;20458;-63
2021/07/19 16:11:02;;;;;;;3.73;3.50;;;28.20;92.00;;;;;;4974796;28;20509;-62
2021/07/19 16:13:28;;;;;;;3.73;3.40;;;28.10;92.50;;;;;;4974824;28;20465;-60
2021/07/19 16:15:56;;;;;;;3.73;3.23;;;28.00;92.70;;;;;;4974904;28;20481;-61
2021/07/19 16:18:23;;;;;;;4.20;4.00;;;27.90;91.90;;;;;;4974648;28;20872;-60
2021/07/19 16:20:50;;;;;;;3.50;3.30;;;27.90;92.00;;;;;;4976699;28;20978;-61
2021/07/19 16:23:18;;;;;;;3.77;3.47;;;27.70;91.60;;;;;;4980210;28;20776;-63
2021/07/19 16:25:46;;;;;;;4.60;4.30;;;27.70;92.50;;;;;;4974830;28;20850;-60
2021/07/19 16:28:12;;;;;;;3.90;3.60;;;27.80;92.50;;;;;;4974857;28;20492;-60
2021/07/19 16:30:39;;;;;;;3.67;3.47;;;27.90;92.90;;;;;;4974698;28;20482;-60
2021/07/19 16:33:05;;;;;;;4.83;3.40;;;28.00;93.00;;;;;;4974532;28;21075;-60
2021/07/19 16:35:32;;;;;;;4.27;4.00;;;28.10;92.80;;;;;;4975263;28;20458;-61
2021/07/19 16:37:59;;;;;;;5.10;3.80;;;28.20;93.00;;;;;;4974910;28;20454;-60
2021/07/19 16:40:26;;;;;;;4.00;3.60;;;28.30;92.20;;;;;;4974663;28;20454;-61
2021/07/19 16:42:54;;;;;;;4.30;3.90;;;28.50;92.00;;;;;;4974653;28;20459;-60
2021/07/19 16:47:47;;;;;;;6.13;3.50;;;28.50;92.50;;;;;;4974588;28;20515;-60
2021/07/19 16:50:15;;;;;;;4.93;4.50;;;28.50;92.40;;;;;;4974494;28;20621;-62
2021/07/19 16:52:42;;;;;;;7.07;4.60;;;28.50;92.50;;;;;;4974449;28;20459;-60
2021/07/19 16:55:10;;;;;;;5.17;4.77;;;28.50;93.00;;;;;;4974419;28;20553;-60